Flight Track Log - Related Links

Times and Time Zones

All times are in EDT time to prevent confusion due to time zone crossing. See the CTL78 flight status page for this flight to view local times or setup timezone preferences in your user account.

Time Position Orientation Groundspeed Altitude Reporting Facility
EDT Latitude Longitude Course Direction KTS MPH feet Rate Location/Type
Fri 10:01:36 PM 41.8822 -83.0125 117° Southeast 149 171 5,100  Level Cleveland Center
Fri 10:02:36 PM 41.8644 -82.9558 113° Southeast 157 181 5,000  Descending Cleveland Center
Fri 10:03:37 PM 41.8469 -82.8994 113° Southeast 152 175 5,100 49 Climbing Cleveland Center
Fri 10:04:38 PM 41.8356 -82.8433 105° East 154 177 5,100  Level Cleveland Center
Fri 10:05:38 PM 41.8178 -82.7925 115° Southeast 156 180 5,100  Level Cleveland Center
Fri 10:06:00 PM 41.9016 -82.6519 117° Southeast  Level Estimated
Fri 10:06:39 PM 41.8042 -82.7392 109° East 153 176 5,100  Level Cleveland Center
Fri 10:07:39 PM 41.7928 -82.6831 105° East 155 178 5,000  Descending Cleveland Center
Fri 10:08:40 PM 41.7769 -82.6297 112° Southeast 157 181 5,100 52 Climbing Cleveland Center
Fri 10:09:35 PM 41.7611 -82.5792 113° Southeast 156 180 5,100  Level Cleveland Center
Fri 10:10:35 PM 41.7433 -82.5200 112° Southeast 158 182 5,100  Level Cleveland Center
Fri 10:11:36 PM 41.7297 -82.4667 109° East 159 183 5,100  Level Cleveland Center
Fri 10:12:30 PM 41.7139 -82.4133 112° Southeast 159 183 5,100  Level Cleveland Center
Fri 10:13:37 PM 41.6961 -82.3517 111° Southeast 161 185 5,100  Level Cleveland Center
Fri 10:14:38 PM 41.6803 -82.2986 112° Southeast 161 185 5,100  Level Cleveland Center
Fri 10:15:38 PM 41.6644 -82.2425 111° Southeast 162 186 5,100  Level Cleveland Center
Fri 10:16:39 PM 41.6486 -82.1836 110° East 165 190 5,100 -209 Level Cleveland Center
Fri 10:17:33 PM 41.6347 -82.1306 109° East 168 193 4,700 -522 Descending Cleveland Center
Fri 10:18:34 PM 41.6189 -82.0664 108° East 180 207 4,100 -541 Descending Cleveland Center
Fri 10:19:35 PM 41.6008 -82.0047 111° Southeast 175 201 3,600 -545 Descending Cleveland Center
Fri 10:20:35 PM 41.5828 -81.9461 112° Southeast 170 196 3,000 -567 Descending Cleveland Center
Fri 10:21:42 PM 41.5628 -81.8847 114° Southeast 171 197 2,400 -567 Descending Cleveland Center
Fri 10:22:42 PM 41.5425 -81.8289 116° Southeast 167 192 1,800 -446 Descending Cleveland Center
Fri 10:23:43 PM 41.5244 -81.7731 113° Southeast 135 155 1,500 -246 Descending Cleveland Center
Fri 10:24:44 PM 41.5122 -81.7311 111° Southeast 121 139 1,300 -197 Descending Cleveland Center

Login

Don't have an account? Register now (free) for customized features, flight alerts, and more!